Time;durP1;ratioP1;P1;durP2;ratioP2;P2;SDS_P1;SDS_P2;PMS_P1;PMS_P2;Temp;Humidity;BMP_temperature;BMP_pressure;BME280_temperature;BME280_humidity;BME280_pressure;Samples;Min_cycle;Max_cycle;Signal;HPM_P1;HPM_P2
2023/06/13 00:01:48;;;;;;;72.47;5.60;;;23.50;1.00;;;;;;5040218;28;20455;-80
2023/06/13 00:04:21;;;;;;;70.47;5.23;;;23.30;1.00;;;;;;5039649;28;20533;-80
2023/06/13 00:06:59;;;;;;;73.47;5.50;;;23.30;1.00;;;;;;5039499;28;20459;-81
2023/06/13 00:09:26;;;;;;;72.20;5.43;;;23.40;1.00;;;;;;5039925;28;20415;-81
2023/06/13 00:11:53;;;;;;;76.70;5.30;;;23.30;1.00;;;;;;5057281;28;20486;-81
2023/06/13 00:14:23;;;;;;;72.33;5.77;;;23.20;1.00;;;;;;5039279;28;20756;-80
2023/06/13 00:16:50;;;;;;;73.57;4.80;;;23.20;1.00;;;;;;5022639;28;20463;-81
2023/06/13 00:19:17;;;;;;;71.77;5.60;;;23.10;1.00;;;;;;5038978;28;20442;-81
2023/06/13 00:21:45;;;;;;;71.27;5.40;;;23.00;1.00;;;;;;5057205;28;20402;-81
2023/06/13 00:24:11;;;;;;;71.70;5.77;;;23.00;1.00;;;;;;5040021;28;20412;-80
2023/06/13 00:26:37;;;;;;;73.33;5.67;;;23.00;1.00;;;;;;5057537;28;20423;-80
2023/06/13 00:29:03;;;;;;;75.70;5.60;;;23.00;1.00;;;;;;5057575;28;20480;-81
2023/06/13 00:31:29;;;;;;;71.27;5.80;;;23.00;1.00;;;;;;5039291;28;20403;-81
2023/06/13 00:33:56;;;;;;;75.80;6.10;;;23.10;1.00;;;;;;5056391;28;20401;-80
2023/06/13 00:36:24;;;;;;;76.63;5.53;;;23.10;1.00;;;;;;5038847;28;20443;-80
2023/06/13 00:38:55;;;;;;;74.50;6.40;;;23.10;1.00;;;;;;5038466;28;20407;-81
2023/06/13 00:41:21;;;;;;;71.20;5.77;;;23.10;1.00;;;;;;5056761;28;20387;-80
2023/06/13 00:43:46;;;;;;;70.90;5.00;;;23.10;1.00;;;;;;5057143;28;20767;-80
2023/06/13 00:46:17;;;;;;;71.03;4.97;;;23.10;1.00;;;;;;5038205;28;20481;-81
2023/06/13 00:48:44;;;;;;;71.60;5.30;;;23.00;1.00;;;;;;5056552;28;20387;-81
2023/06/13 00:51:16;;;;;;;72.60;6.13;;;23.00;1.00;;;;;;5039293;28;20790;-80
2023/06/13 00:53:46;;;;;;;70.90;4.90;;;22.90;1.00;;;;;;5057104;28;20399;-81
2023/06/13 00:56:11;;;;;;;73.20;5.80;;;22.90;1.00;;;;;;5057060;28;20446;-81
2023/06/13 00:58:37;;;;;;;75.33;6.07;;;22.80;1.00;;;;;;5056082;28;20819;-81
2023/06/13 01:01:04;;;;;;;70.40;4.63;;;22.70;1.00;;;;;;5056765;28;20157;-81
2023/06/13 01:03:33;;;;;;;71.87;5.70;;;22.70;1.00;;;;;;5056418;28;20434;-80
2023/06/13 01:05:59;;;;;;;72.77;5.70;;;22.60;1.00;;;;;;5055711;28;20546;-80
2023/06/13 01:08:27;;;;;;;71.53;5.60;;;22.60;1.00;;;;;;5056141;28;20431;-80
2023/06/13 01:11:12;;;;;;;72.13;6.03;;;22.60;1.00;;;;;;5055752;28;20486;-80
2023/06/13 01:13:51;;;;;;;71.70;5.57;;;22.60;1.00;;;;;;5038371;28;20407;-80
2023/06/13 01:16:36;;;;;;;71.83;5.80;;;22.50;1.00;;;;;;5037659;28;20439;-80
2023/06/13 01:19:18;;;;;;;71.77;6.00;;;22.40;1.00;;;;;;5055670;28;20372;-81
2023/06/13 01:21:45;;;;;;;78.20;7.23;;;22.30;1.00;;;;;;5055423;28;20775;-80
2023/06/13 01:24:19;;;;;;;71.60;6.27;;;22.20;1.00;;;;;;5055721;28;20446;-81
2023/06/13 01:26:56;;;;;;;75.93;6.67;;;22.20;1.00;;;;;;5055808;28;20428;-80
2023/06/13 01:29:23;;;;;;;75.83;6.13;;;22.20;1.00;;;;;;5055482;28;20461;-80
2023/06/13 01:31:56;;;;;;;73.37;6.93;;;22.20;1.00;;;;;;5038172;28;20415;-80
2023/06/13 01:34:24;;;;;;;72.27;6.23;;;22.20;1.00;;;;;;5037318;28;20403;-81
2023/06/13 01:36:50;;;;;;;75.13;7.33;;;22.20;1.00;;;;;;5037656;28;20463;-81
2023/06/13 01:39:16;;;;;;;72.67;6.20;;;22.10;1.00;;;;;;5037718;28;20453;-81
2023/06/13 01:41:42;;;;;;;70.77;6.40;;;22.10;1.00;;;;;;5056424;28;20399;-81
2023/06/13 01:44:15;;;;;;;71.27;6.77;;;22.00;1.00;;;;;;5055440;28;20234;-80
2023/06/13 01:46:58;;;;;;;72.40;6.63;;;22.00;1.00;;;;;;5055497;28;20992;-80
2023/06/13 01:49:40;;;;;;;73.30;6.20;;;22.00;1.00;;;;;;5038276;28;20915;-81
2023/06/13 01:52:29;;;;;;;72.97;6.47;;;21.90;1.00;;;;;;5055353;28;20747;-80
2023/06/13 01:55:02;;;;;;;74.33;6.90;;;21.90;1.00;;;;;;5055216;28;20390;-80
2023/06/13 01:57:33;;;;;;;71.07;5.70;;;21.80;1.00;;;;;;5037170;28;20946;-80
2023/06/13 02:00:01;;;;;;;72.10;6.90;;;21.80;1.00;;;;;;5055170;28;20383;-80
2023/06/13 02:02:27;;;;;;;74.00;6.80;;;21.70;1.00;;;;;;5037455;28;20408;-80
2023/06/13 02:04:55;;;;;;;72.30;6.57;;;21.70;1.00;;;;;;5055221;28;20759;-81
2023/06/13 02:07:22;;;;;;;70.60;6.20;;;21.70;1.00;;;;;;5054997;28;20411;-81
2023/06/13 02:09:48;;;;;;;72.97;6.87;;;21.60;1.00;;;;;;5054564;28;20902;-80
2023/06/13 02:12:14;;;;;;;72.37;6.60;;;21.60;1.00;;;;;;5037093;28;20417;-80
2023/06/13 02:14:40;;;;;;;72.57;6.90;;;21.60;1.00;;;;;;5037469;28;20214;-81
2023/06/13 02:17:06;;;;;;;70.97;6.50;;;21.60;1.00;;;;;;5036874;28;20458;-80
2023/06/13 02:19:32;;;;;;;74.00;6.60;;;21.50;1.00;;;;;;5054741;28;20153;-80
2023/06/13 02:21:58;;;;;;;74.00;6.50;;;21.50;1.00;;;;;;5055390;28;20453;-81
2023/06/13 02:24:23;;;;;;;72.53;7.00;;;21.50;1.00;;;;;;5054656;28;20400;-80
2023/06/13 02:26:50;;;;;;;71.20;6.53;;;21.50;1.00;;;;;;5036989;28;20195;-81
2023/06/13 02:29:18;;;;;;;71.17;6.17;;;21.50;1.00;;;;;;5054501;28;20161;-81
2023/06/13 02:31:44;;;;;;;71.83;6.20;;;21.50;1.00;;;;;;5054626;28;20453;-80
2023/06/13 02:34:11;;;;;;;73.30;7.00;;;21.50;1.00;;;;;;5037038;28;20469;-80
2023/06/13 02:36:36;;;;;;;72.77;6.70;;;21.40;1.00;;;;;;5037105;28;20504;-80
2023/06/13 02:39:03;;;;;;;73.23;7.70;;;21.40;1.00;;;;;;5036755;28;20411;-80
2023/06/13 02:41:29;;;;;;;72.60;6.30;;;21.40;1.00;;;;;;5036932;28;20165;-80
2023/06/13 02:43:54;;;;;;;71.90;6.10;;;21.30;1.00;;;;;;5055457;28;20402;-81
2023/06/13 02:46:20;;;;;;;72.10;6.70;;;21.20;1.00;;;;;;5054827;28;20612;-80
2023/06/13 02:48:45;;;;;;;72.87;6.60;;;21.20;1.00;;;;;;5054628;28;20172;-80
2023/06/13 02:51:11;;;;;;;72.90;6.50;;;21.20;1.00;;;;;;5037271;28;20172;-80
2023/06/13 02:53:37;;;;;;;70.83;6.27;;;21.20;1.00;;;;;;5054739;28;20172;-80
2023/06/13 02:56:03;;;;;;;71.67;5.90;;;21.10;1.00;;;;;;5036953;28;20230;-81
2023/06/13 02:58:29;;;;;;;71.50;6.77;;;21.00;1.00;;;;;;5054655;28;20446;-80
2023/06/13 03:00:54;;;;;;;75.20;6.73;;;21.00;1.00;;;;;;5054858;28;20517;-80
2023/06/13 03:03:23;;;;;;;74.97;7.00;;;21.00;1.00;;;;;;5036401;28;20536;-80
2023/06/13 03:05:56;;;;;;;72.80;5.93;;;21.00;1.00;;;;;;5036533;28;20189;-80
2023/06/13 03:08:22;;;;;;;71.70;6.50;;;21.00;1.00;;;;;;5036383;28;20427;-80
2023/06/13 03:10:50;;;;;;;72.80;6.60;;;21.00;1.00;;;;;;5054080;28;20403;-80
2023/06/13 03:13:18;;;;;;;76.60;7.07;;;20.90;1.00;;;;;;5053917;28;20457;-80
2023/06/13 03:15:47;;;;;;;76.07;6.10;;;20.90;1.00;;;;;;5054399;28;20969;-80
2023/06/13 03:18:14;;;;;;;70.70;6.23;;;20.80;1.00;;;;;;5053616;28;20995;-80
2023/06/13 03:20:45;;;;;;;70.70;5.87;;;20.80;1.00;;;;;;5054832;28;20456;-80
2023/06/13 03:23:13;;;;;;;73.10;6.20;;;20.80;1.00;;;;;;5040435;28;21031;-80
2023/06/13 03:25:40;;;;;;;73.00;6.73;;;20.70;1.00;;;;;;5057898;28;20408;-80
2023/06/13 03:28:06;;;;;;;71.37;6.37;;;20.70;1.00;;;;;;5057582;28;20422;-80
2023/06/13 03:30:33;;;;;;;72.70;7.10;;;20.60;1.00;;;;;;5040003;28;20509;-79
2023/06/13 03:32:58;;;;;;;70.77;6.93;;;20.60;1.00;;;;;;5057719;28;20422;-79
2023/06/13 03:35:24;;;;;;;71.87;8.20;;;20.60;1.00;;;;;;5057592;28;20439;-80
2023/06/13 03:37:50;;;;;;;72.00;8.53;;;20.50;1.00;;;;;;5057942;28;20209;-80
2023/06/13 03:40:16;;;;;;;71.17;8.47;;;20.50;1.00;;;;;;5057975;28;20402;-80
2023/06/13 03:42:41;;;;;;;73.70;10.30;;;20.40;1.00;;;;;;5039960;28;20174;-80
2023/06/13 03:45:07;;;;;;;72.30;9.30;;;20.40;1.00;;;;;;5057823;28;20169;-80
2023/06/13 03:47:33;;;;;;;72.57;9.00;;;20.40;1.00;;;;;;5057492;28;20178;-79
2023/06/13 03:49:59;;;;;;;75.23;10.73;;;20.40;1.00;;;;;;5057938;28;20764;-80
2023/06/13 03:52:24;;;;;;;75.80;10.03;;;20.40;1.00;;;;;;5057178;28;20619;-80
2023/06/13 03:54:51;;;;;;;80.67;12.07;;;20.40;1.00;;;;;;5039546;28;20168;-80
2023/06/13 03:57:17;;;;;;;75.43;11.43;;;20.40;1.00;;;;;;5039368;28;20812;-80
2023/06/13 03:59:43;;;;;;;74.80;11.07;;;20.40;1.00;;;;;;5122513;23;20479;-81
2023/06/13 04:02:10;;;;;;;75.40;12.27;;;20.30;1.00;;;;;;5058272;28;20232;-80
2023/06/13 04:04:36;;;;;;;75.27;13.00;;;20.40;1.00;;;;;;5076067;28;20168;-80
2023/06/13 04:07:05;;;;;;;72.47;11.37;;;20.40;1.00;;;;;;5074364;28;20423;-80
2023/06/13 04:09:31;;;;;;;72.87;10.90;;;20.40;1.00;;;;;;5076344;28;20430;-80
2023/06/13 04:11:57;;;;;;;71.20;10.40;;;20.30;1.00;;;;;;5075884;28;20444;-80
2023/06/13 04:14:22;;;;;;;74.07;11.90;;;20.30;1.00;;;;;;5058940;28;20252;-80
2023/06/13 04:16:48;;;;;;;73.10;10.90;;;20.30;1.00;;;;;;5076046;28;20275;-79
2023/06/13 04:19:18;;;;;;;72.80;10.87;;;20.30;1.00;;;;;;5058454;28;20176;-80
2023/06/13 04:21:47;;;;;;;71.87;10.27;;;20.20;1.00;;;;;;5058297;28;20200;-80
2023/06/13 04:24:14;;;;;;;75.40;11.13;;;20.20;1.00;;;;;;5075148;28;20430;-80
2023/06/13 04:26:41;;;;;;;71.10;9.17;;;20.20;1.00;;;;;;5058323;28;20515;-80
2023/06/13 04:29:09;;;;;;;72.67;9.27;;;20.20;1.00;;;;;;5058118;28;20423;-80
2023/06/13 04:31:36;;;;;;;73.70;9.20;;;20.20;1.00;;;;;;5058280;28;20409;-80
2023/06/13 04:34:07;;;;;;;71.50;9.80;;;20.30;1.00;;;;;;5057313;28;20419;-80
2023/06/13 04:36:33;;;;;;;72.30;10.30;;;20.50;1.00;;;;;;5057471;28;20462;-79
2023/06/13 04:39:04;;;;;;;73.33;10.67;;;20.80;1.00;;;;;;5075085;28;20390;-79
2023/06/13 04:41:34;;;;;;;74.50;12.17;;;21.20;1.00;;;;;;5075846;28;20389;-80
2023/06/13 04:44:03;;;;;;;75.60;11.87;;;21.40;1.00;;;;;;5057910;28;20414;-80
2023/06/13 04:46:30;;;;;;;75.07;11.73;;;21.60;1.00;;;;;;5075459;28;20419;-80
2023/06/13 04:48:57;;;;;;;72.30;8.03;;;21.80;1.00;;;;;;5075468;28;20443;-80
2023/06/13 04:51:23;;;;;;;72.27;7.10;;;21.90;1.00;;;;;;5075208;28;20423;-80
2023/06/13 04:53:49;;;;;;;72.17;7.30;;;21.90;1.00;;;;;;5057358;28;20479;-80
2023/06/13 04:56:15;;;;;;;71.50;5.87;;;22.20;1.00;;;;;;5057082;28;20833;-80
2023/06/13 04:58:41;;;;;;;70.93;6.33;;;22.30;1.00;;;;;;5074590;28;20474;-80
2023/06/13 05:01:07;;;;;;;73.90;7.07;;;22.20;1.00;;;;;;5057513;28;20403;-80
2023/06/13 05:03:34;;;;;;;72.17;6.27;;;22.30;1.00;;;;;;5057438;28;20172;-80
2023/06/13 05:06:00;;;;;;;73.20;7.33;;;22.50;1.00;;;;;;5056335;28;20399;-80
2023/06/13 05:08:26;;;;;;;73.40;7.20;;;22.40;1.00;;;;;;5073921;28;20426;-79
2023/06/13 05:10:52;;;;;;;74.10;6.47;;;22.40;1.00;;;;;;5075009;28;20403;-80
2023/06/13 05:13:18;;;;;;;73.60;6.20;;;22.30;1.00;;;;;;5056760;28;20225;-80
2023/06/13 05:15:44;;;;;;;71.40;6.07;;;22.20;1.00;;;;;;5073510;28;20466;-80
2023/06/13 05:18:12;;;;;;;75.00;6.40;;;22.10;1.00;;;;;;5056138;28;20191;-80
2023/06/13 05:20:42;;;;;;;73.40;5.90;;;21.70;1.00;;;;;;5073533;28;20462;-80
2023/06/13 05:23:08;;;;;;;70.67;5.80;;;21.60;1.00;;;;;;5055468;28;20418;-80
2023/06/13 05:25:35;;;;;;;73.00;6.10;;;21.50;1.00;;;;;;5073449;28;20403;-80
2023/06/13 05:28:02;;;;;;;72.60;6.80;;;21.50;1.00;;;;;;5073356;28;20419;-79
2023/06/13 05:30:27;;;;;;;83.60;7.10;;;21.50;1.00;;;;;;5074009;28;20409;-79
2023/06/13 05:32:53;;;;;;;72.47;7.07;;;21.50;1.00;;;;;;5056095;28;20443;-80
2023/06/13 05:35:19;;;;;;;72.03;6.50;;;21.50;1.00;;;;;;5071317;28;20192;-79
2023/06/13 05:37:46;;;;;;;73.20;7.20;;;21.40;1.00;;;;;;5074275;28;20195;-79
2023/06/13 05:40:12;;;;;;;74.33;6.40;;;21.30;1.00;;;;;;5074581;28;20232;-79
2023/06/13 05:42:38;;;;;;;73.03;6.80;;;21.20;1.00;;;;;;5056398;28;20445;-79
2023/06/13 05:45:06;;;;;;;71.20;7.23;;;21.10;1.00;;;;;;5072096;28;20489;-80
2023/06/13 05:47:32;;;;;;;70.70;7.73;;;21.00;1.00;;;;;;5067138;28;20184;-80
2023/06/13 05:49:58;;;;;;;77.53;6.90;;;21.00;1.00;;;;;;5067072;28;20922;-80
2023/06/13 05:52:23;;;;;;;72.30;7.40;;;21.10;1.00;;;;;;5062935;28;20490;-78
2023/06/13 05:54:49;;;;;;;71.87;6.77;;;21.10;1.00;;;;;;5054679;28;20252;-77
2023/06/13 05:57:15;;;;;;;71.87;6.60;;;21.00;1.00;;;;;;5054351;28;20200;-77
2023/06/13 05:59:41;;;;;;;73.80;6.27;;;21.10;1.00;;;;;;5053983;28;20168;-77
2023/06/13 06:02:09;;;;;;;71.47;7.43;;;21.20;1.00;;;;;;5054814;28;20164;-78
2023/06/13 06:04:35;;;;;;;72.50;5.60;;;21.00;1.00;;;;;;5054975;28;20409;-77
2023/06/13 06:07:01;;;;;;;71.63;6.83;;;21.00;1.00;;;;;;5036867;28;20438;-77
2023/06/13 06:09:26;;;;;;;73.57;7.30;;;21.00;1.00;;;;;;5041304;28;20406;-78
2023/06/13 06:11:52;;;;;;;72.10;6.10;;;21.10;1.00;;;;;;5057892;28;20253;-78
2023/06/13 06:14:18;;;;;;;70.87;6.10;;;21.10;1.00;;;;;;5058253;28;20169;-78
2023/06/13 06:16:43;;;;;;;72.20;6.60;;;21.00;1.00;;;;;;5058805;28;20647;-78
2023/06/13 06:19:09;;;;;;;75.57;7.77;;;21.00;1.00;;;;;;5057520;28;20163;-78
2023/06/13 06:21:35;;;;;;;72.37;8.20;;;21.00;1.00;;;;;;5058014;28;20234;-78
2023/06/13 06:24:01;;;;;;;74.77;6.80;;;21.00;1.00;;;;;;5058767;28;20167;-78
2023/06/13 06:26:26;;;;;;;70.77;7.10;;;21.10;1.00;;;;;;5057964;28;20176;-78
2023/06/13 06:28:52;;;;;;;72.80;6.97;;;21.20;1.00;;;;;;5058398;28;20438;-78
2023/06/13 06:31:18;;;;;;;74.20;6.40;;;21.20;1.00;;;;;;5058210;28;20169;-78
2023/06/13 06:33:44;;;;;;;71.30;7.07;;;21.30;1.00;;;;;;5056521;28;20413;-78
2023/06/13 06:36:10;;;;;;;71.90;6.70;;;21.30;1.00;;;;;;5056394;28;20203;-78
2023/06/13 06:38:35;;;;;;;74.20;7.40;;;21.20;1.00;;;;;;5058013;28;20843;-78
2023/06/13 06:41:01;;;;;;;70.00;6.70;;;21.40;1.00;;;;;;5058312;28;20171;-78
2023/06/13 06:43:27;;;;;;;72.60;7.20;;;21.40;1.00;;;;;;5039495;28;20172;-78
2023/06/13 06:45:52;;;;;;;74.37;7.67;;;21.40;1.00;;;;;;5039942;28;20193;-78
2023/06/13 06:48:18;;;;;;;71.90;6.90;;;21.50;1.00;;;;;;5057452;28;20199;-78
2023/06/13 06:50:44;;;;;;;71.97;7.50;;;21.50;1.00;;;;;;5058100;28;20202;-78
2023/06/13 06:53:10;;;;;;;71.00;6.37;;;21.60;1.00;;;;;;5057864;28;20247;-78
2023/06/13 06:55:35;;;;;;;72.23;6.83;;;21.70;1.00;;;;;;5040357;28;20196;-78
2023/06/13 06:58:01;;;;;;;72.10;6.77;;;21.80;1.00;;;;;;5043519;28;20516;-78
2023/06/13 07:00:27;;;;;;;71.80;6.80;;;21.70;1.00;;;;;;5045517;28;20236;-78
2023/06/13 07:02:54;;;;;;;72.30;7.47;;;21.70;1.00;;;;;;5062904;28;20242;-78
2023/06/13 07:05:20;;;;;;;71.53;6.70;;;21.70;1.00;;;;;;5044413;28;20176;-78
2023/06/13 07:07:46;;;;;;;71.10;6.67;;;21.80;1.00;;;;;;5061170;28;20425;-78
2023/06/13 07:10:12;;;;;;;70.80;6.23;;;21.80;1.00;;;;;;5061925;28;20439;-78
2023/06/13 07:12:38;;;;;;;78.60;6.90;;;21.80;1.00;;;;;;5062698;28;20567;-77
2023/06/13 07:15:05;;;;;;;73.80;5.90;;;21.90;1.00;;;;;;5042183;28;20163;-78
2023/06/13 07:17:30;;;;;;;71.83;6.43;;;21.90;1.00;;;;;;5061119;28;20498;-78
2023/06/13 07:19:56;;;;;;;70.47;6.23;;;21.90;1.00;;;;;;5060624;28;20429;-78
2023/06/13 07:22:22;;;;;;;72.37;6.40;;;22.00;1.00;;;;;;5043227;28;20594;-78
2023/06/13 07:24:48;;;;;;;72.27;6.80;;;22.00;1.00;;;;;;5061167;28;20187;-78
2023/06/13 07:27:15;;;;;;;71.07;6.57;;;22.00;1.00;;;;;;5059978;28;20680;-78
2023/06/13 07:29:41;;;;;;;73.67;5.93;;;22.10;1.00;;;;;;5041475;28;20666;-78
2023/06/13 07:32:07;;;;;;;71.40;6.17;;;22.10;1.00;;;;;;5060461;28;20410;-78
2023/06/13 07:34:33;;;;;;;75.50;6.60;;;22.20;1.00;;;;;;5060607;28;20502;-78
2023/06/13 07:36:58;;;;;;;73.00;6.87;;;22.20;1.00;;;;;;5059938;28;20547;-78
2023/06/13 07:39:24;;;;;;;73.50;6.93;;;22.20;1.00;;;;;;5061058;28;20176;-78
2023/06/13 07:41:50;;;;;;;73.80;5.97;;;22.30;1.00;;;;;;5042344;28;20169;-78
2023/06/13 07:44:15;;;;;;;71.50;6.17;;;22.30;1.00;;;;;;5060765;28;20192;-78
2023/06/13 07:46:42;;;;;;;71.80;6.00;;;22.30;1.00;;;;;;5060647;28;20264;-78
2023/06/13 07:49:07;;;;;;;71.60;6.70;;;22.40;1.00;;;;;;5059711;28;20234;-78
2023/06/13 07:51:33;;;;;;;72.60;6.70;;;22.40;1.00;;;;;;5060281;28;20415;-78
2023/06/13 07:53:59;;;;;;;71.80;5.90;;;22.50;1.00;;;;;;5058880;28;20519;-78
2023/06/13 07:56:25;;;;;;;72.77;6.33;;;22.40;1.00;;;;;;5060034;28;20443;-78
2023/06/13 07:58:51;;;;;;;74.80;6.20;;;22.40;1.00;;;;;;5059602;28;20430;-78
2023/06/13 08:01:20;;;;;;;75.20;6.20;;;22.40;1.00;;;;;;5060423;28;20497;-78
2023/06/13 08:03:45;;;;;;;71.90;6.10;;;22.50;1.00;;;;;;5061242;28;20621;-78
2023/06/13 08:06:11;;;;;;;72.10;6.77;;;22.50;1.00;;;;;;5058988;28;20415;-78
2023/06/13 08:08:37;;;;;;;70.67;6.33;;;22.60;1.00;;;;;;5040328;28;20216;-78
2023/06/13 08:11:02;;;;;;;73.70;10.87;;;22.60;1.00;;;;;;5058579;28;20497;-78
2023/06/13 08:13:28;;;;;;;74.17;6.37;;;22.60;1.00;;;;;;5042728;28;20177;-78
2023/06/13 08:15:54;;;;;;;71.70;5.87;;;22.70;1.00;;;;;;5059139;28;20193;-78
2023/06/13 08:18:19;;;;;;;70.67;6.00;;;22.70;1.00;;;;;;5058653;28;20195;-78
2023/06/13 08:20:47;;;;;;;71.83;6.33;;;22.70;1.00;;;;;;5040847;28;20197;-78
2023/06/13 08:23:14;;;;;;;72.50;6.60;;;22.70;1.00;;;;;;5041740;28;20544;-78
2023/06/13 08:25:41;;;;;;;73.10;7.20;;;22.80;1.00;;;;;;5040453;28;20627;-78
2023/06/13 08:28:07;;;;;;;73.93;6.93;;;22.90;1.00;;;;;;5039975;28;20439;-78
2023/06/13 08:30:33;;;;;;;72.57;5.80;;;22.80;1.00;;;;;;5059133;28;20828;-78
2023/06/13 08:33:01;;;;;;;72.27;5.90;;;22.80;1.00;;;;;;5057425;28;20430;-78
2023/06/13 08:35:27;;;;;;;72.50;6.90;;;22.90;1.00;;;;;;5056885;28;20192;-78
2023/06/13 08:37:56;;;;;;;73.47;7.23;;;22.90;1.00;;;;;;5059354;28;20498;-78
2023/06/13 08:40:22;;;;;;;72.83;6.80;;;23.00;1.00;;;;;;5059687;28;20667;-78
2023/06/13 08:42:48;;;;;;;71.27;6.63;;;23.10;1.00;;;;;;5059359;28;20411;-78
2023/06/13 08:45:14;;;;;;;72.70;5.80;;;23.20;1.00;;;;;;5059070;28;20433;-78
2023/06/13 08:47:46;;;;;;;70.90;6.63;;;23.30;1.00;;;;;;5040419;28;20480;-78
2023/06/13 08:50:13;;;;;;;70.50;5.80;;;23.30;1.00;;;;;;5039780;28;20774;-78
2023/06/13 08:52:41;;;;;;;71.37;6.50;;;23.40;1.00;;;;;;5058031;28;20763;-78
2023/06/13 08:55:08;;;;;;;72.80;7.00;;;23.50;1.00;;;;;;5039793;28;20411;-78
2023/06/13 08:57:37;;;;;;;73.17;7.43;;;23.60;1.00;;;;;;5058119;28;20454;-78
2023/06/13 09:00:06;;;;;;;72.27;7.13;;;23.70;1.00;;;;;;5059126;28;20378;-78
2023/06/13 09:02:32;;;;;;;71.43;6.87;;;23.80;1.00;;;;;;5041605;28;20414;-78
2023/06/13 09:04:59;;;;;;;72.30;5.93;;;23.90;1.00;;;;;;5039176;28;20407;-78
2023/06/13 09:07:25;;;;;;;74.40;6.20;;;23.90;1.00;;;;;;5059131;28;20426;-78
2023/06/13 09:09:53;;;;;;;73.60;6.33;;;23.80;1.00;;;;;;5058421;28;20400;-77
2023/06/13 09:12:19;;;;;;;74.90;5.37;;;23.90;1.00;;;;;;5058055;28;20433;-78
2023/06/13 09:14:46;;;;;;;71.10;6.20;;;23.90;1.00;;;;;;5059574;28;20405;-78
2023/06/13 09:17:12;;;;;;;71.57;6.30;;;24.00;1.00;;;;;;5039702;28;20454;-78
2023/06/13 09:19:38;;;;;;;73.20;5.90;;;24.10;1.00;;;;;;5040329;28;20418;-78
2023/06/13 09:22:03;;;;;;;71.77;5.90;;;24.10;1.00;;;;;;5039939;28;20400;-78
2023/06/13 09:24:32;;;;;;;74.40;5.67;;;24.10;1.00;;;;;;5058542;28;20165;-78
2023/06/13 09:26:58;;;;;;;73.57;7.47;;;24.20;1.00;;;;;;5059040;28;20431;-78
2023/06/13 09:29:34;;;;;;;71.00;6.00;;;24.40;1.00;;;;;;5040805;28;20499;-78
2023/06/13 09:32:01;;;;;;;73.40;6.47;;;24.60;1.00;;;;;;5040992;28;20407;-78
2023/06/13 09:34:30;;;;;;;71.03;5.20;;;24.70;1.00;;;;;;5040655;28;20419;-78
2023/06/13 09:36:57;;;;;;;71.87;5.70;;;24.80;1.00;;;;;;5040186;28;20520;-78
2023/06/13 09:39:27;;;;;;;72.10;6.20;;;25.00;1.00;;;;;;5058872;28;20448;-78
2023/06/13 09:41:57;;;;;;;74.07;6.40;;;25.10;1.00;;;;;;5041711;28;20400;-78
2023/06/13 09:44:26;;;;;;;70.77;5.10;;;25.20;1.00;;;;;;5058986;28;20391;-78
2023/06/13 09:46:53;;;;;;;75.93;5.30;;;25.40;1.00;;;;;;5060588;28;20992;-78
2023/06/13 09:49:20;;;;;;;71.90;5.47;;;25.60;1.00;;;;;;5040334;28;20412;-78
2023/06/13 09:51:46;;;;;;;72.10;5.40;;;25.70;1.00;;;;;;5056903;28;20985;-78
2023/06/13 09:54:13;;;;;;;72.80;5.33;;;25.60;1.00;;;;;;5059327;28;20403;-78
2023/06/13 09:56:45;;;;;;;72.90;5.70;;;25.80;1.00;;;;;;5058581;28;20451;-78
2023/06/13 09:59:21;;;;;;;74.97;5.37;;;26.00;1.00;;;;;;5139372;22;20501;-81
2023/06/13 10:01:47;;;;;;;73.97;5.50;;;26.30;1.00;;;;;;5077653;28;20377;-82
2023/06/13 10:04:14;;;;;;;71.57;5.50;;;26.40;1.00;;;;;;5077206;28;20409;-81
2023/06/13 10:06:40;;;;;;;73.67;5.80;;;26.40;1.00;;;;;;5076754;28;20417;-81
2023/06/13 10:09:06;;;;;;;74.40;5.57;;;26.30;1.00;;;;;;5077010;28;20402;-81
2023/06/13 10:11:35;;;;;;;73.40;6.30;;;26.60;1.00;;;;;;5059326;28;20455;-81
2023/06/13 10:14:09;;;;;;;71.37;6.43;;;26.70;1.00;;;;;;5058995;28;20309;-81
2023/06/13 10:16:40;;;;;;;71.23;6.73;;;26.80;1.00;;;;;;5058998;28;20449;-82
2023/06/13 10:19:08;;;;;;;72.97;6.13;;;26.80;1.00;;;;;;5077374;28;20386;-81
2023/06/13 10:21:36;;;;;;;72.17;6.70;;;26.70;1.00;;;;;;5077123;28;20744;-82
2023/06/13 10:24:02;;;;;;;75.30;6.73;;;26.80;1.00;;;;;;5076880;28;20401;-81
2023/06/13 10:26:41;;;;;;;71.57;6.10;;;27.00;1.00;;;;;;5076898;28;20467;-81
2023/06/13 10:29:39;;;;;;;71.10;6.60;;;27.00;1.00;;;;;;5076323;28;20493;-81
2023/06/13 10:32:20;;;;;;;70.47;6.37;;;27.30;1.00;;;;;;5058603;28;20406;-82
2023/06/13 10:35:04;;;;;;;73.20;6.63;;;27.60;1.00;;;;;;5077096;28;20477;-82
2023/06/13 10:37:30;;;;;;;71.83;5.10;;;27.20;1.00;;;;;;5076782;28;20446;-82
2023/06/13 10:40:05;;;;;;;73.60;5.40;;;27.30;1.00;;;;;;5059493;28;20414;-82
2023/06/13 10:42:43;;;;;;;71.83;6.07;;;27.40;1.00;;;;;;5058720;28;20164;-81
2023/06/13 10:45:16;;;;;;;70.80;4.90;;;27.30;1.00;;;;;;5077050;28;20393;-81
2023/06/13 10:47:41;;;;;;;73.30;5.50;;;27.60;1.00;;;;;;5076587;28;20508;-82
2023/06/13 10:50:08;;;;;;;71.23;5.27;;;27.80;1.00;;;;;;5077095;28;20444;-82
2023/06/13 10:52:34;;;;;;;70.77;4.60;;;27.70;1.00;;;;;;5058668;28;20172;-82
2023/06/13 10:55:01;;;;;;;70.67;4.30;;;27.80;1.00;;;;;;5076826;28;20407;-81
2023/06/13 10:57:50;;;;;;;74.27;5.10;;;27.50;1.00;;;;;;5076101;28;20218;-81
2023/06/13 11:00:37;;;;;;;72.00;4.93;;;27.90;1.00;;;;;;5058138;28;20414;-82
2023/06/13 11:03:09;;;;;;;71.33;4.70;;;28.10;1.00;;;;;;5058530;28;20414;-82
2023/06/13 11:05:49;;;;;;;70.87;4.50;;;28.10;1.00;;;;;;5076579;28;20409;-81
2023/06/13 11:08:24;;;;;;;71.70;4.73;;;28.20;1.00;;;;;;5059156;28;20937;-82
2023/06/13 11:10:52;;;;;;;73.20;5.10;;;28.10;1.00;;;;;;5077162;28;20390;-81
2023/06/13 11:13:20;;;;;;;77.77;5.10;;;28.30;1.00;;;;;;5076443;28;20405;-81
2023/06/13 11:15:47;;;;;;;71.47;4.80;;;28.70;1.00;;;;;;5058439;28;20452;-82
2023/06/13 11:18:14;;;;;;;71.97;4.77;;;28.90;1.00;;;;;;5058566;28;20422;-83
2023/06/13 11:20:57;;;;;;;73.07;4.90;;;28.60;1.00;;;;;;5058883;28;20433;-82
2023/06/13 11:24:03;;;;;;;70.40;4.27;;;28.10;1.00;;;;;;5076736;28;20404;-82
2023/06/13 11:26:29;;;;;;;71.50;4.90;;;27.90;1.00;;;;;;5075956;28;20507;-82
2023/06/13 11:28:55;;;;;;;76.50;5.27;;;28.20;1.00;;;;;;5058802;28;20438;-82
2023/06/13 11:31:21;;;;;;;70.20;4.57;;;28.60;1.00;;;;;;5076077;28;20164;-82
2023/06/13 11:33:50;;;;;;;72.27;4.23;;;29.10;1.00;;;;;;5076353;28;20398;-82
2023/06/13 11:36:17;;;;;;;75.93;5.20;;;29.10;1.00;;;;;;5076633;28;20438;-81
2023/06/13 11:38:57;;;;;;;70.37;4.70;;;29.30;1.00;;;;;;5058405;28;20823;-81
2023/06/13 11:41:22;;;;;;;70.43;4.90;;;29.30;1.00;;;;;;5076452;28;20411;-82
2023/06/13 11:43:48;;;;;;;70.73;5.67;;;29.50;1.00;;;;;;5079986;28;20409;-82
2023/06/13 11:46:17;;;;;;;73.20;6.33;;;29.30;1.00;;;;;;5080131;28;20739;-82
2023/06/13 11:48:43;;;;;;;73.40;6.27;;;29.50;1.00;;;;;;5079831;28;20398;-82
2023/06/13 11:51:14;;;;;;;71.53;4.90;;;29.30;1.00;;;;;;5061520;28;20422;-81
2023/06/13 11:53:54;;;;;;;71.63;5.30;;;28.70;1.00;;;;;;5079712;28;20406;-82
2023/06/13 11:56:23;;;;;;;72.20;5.10;;;28.90;1.00;;;;;;5061294;28;20456;-81
2023/06/13 11:58:50;;;;;;;70.80;5.93;;;29.20;1.00;;;;;;5079672;28;20414;-82
2023/06/13 12:01:17;;;;;;;72.97;5.27;;;29.30;1.00;;;;;;5061507;28;20407;-82
2023/06/13 12:03:45;;;;;;;72.70;5.43;;;29.20;1.00;;;;;;5079873;28;20794;-82
2023/06/13 12:06:11;;;;;;;70.77;6.50;;;29.40;1.00;;;;;;5079821;28;20398;-82
2023/06/13 12:08:41;;;;;;;70.80;6.83;;;29.60;1.00;;;;;;5061473;28;21000;-82
2023/06/13 12:11:11;;;;;;;74.07;8.83;;;29.70;1.00;;;;;;5062647;28;20766;-82
2023/06/13 12:13:36;;;;;;;72.00;8.03;;;29.50;1.00;;;;;;5061604;28;20410;-82
2023/06/13 12:16:04;;;;;;;73.33;10.00;;;29.70;1.00;;;;;;5079490;28;20933;-82
2023/06/13 12:18:29;;;;;;;71.47;8.93;;;29.60;1.00;;;;;;5078996;28;20547;-82
2023/06/13 12:20:57;;;;;;;71.83;7.77;;;29.00;1.00;;;;;;5079467;28;20395;-82
2023/06/13 12:23:24;;;;;;;72.00;7.13;;;28.60;1.00;;;;;;5061320;28;20168;-82
2023/06/13 12:25:50;;;;;;;77.10;7.40;;;28.90;1.00;;;;;;5062007;28;20453;-81
2023/06/13 12:28:17;;;;;;;78.40;7.77;;;29.10;1.00;;;;;;5061033;28;20944;-82
2023/06/13 12:30:45;;;;;;;71.77;7.57;;;29.40;1.00;;;;;;5079599;28;20445;-82
2023/06/13 12:33:15;;;;;;;73.10;7.83;;;29.50;1.00;;;;;;5079288;28;20758;-82
2023/06/13 12:35:51;;;;;;;73.90;8.03;;;29.60;1.00;;;;;;5060788;28;20470;-82
2023/06/13 12:38:28;;;;;;;73.27;9.33;;;29.70;1.00;;;;;;5060542;28;20784;-82
2023/06/13 12:40:54;;;;;;;73.20;9.17;;;29.90;1.00;;;;;;5078901;28;20428;-81
2023/06/13 12:43:28;;;;;;;71.83;8.13;;;30.10;1.00;;;;;;5061202;28;20398;-82
2023/06/13 12:45:58;;;;;;;73.03;8.00;;;30.00;1.00;;;;;;5061317;28;20573;-82
2023/06/13 12:48:25;;;;;;;77.07;8.53;;;30.00;1.00;;;;;;5060455;28;20426;-82
2023/06/13 12:50:54;;;;;;;72.17;9.90;;;29.70;1.00;;;;;;5078412;28;20417;-81